createdAt,value
2017-07-01T00:00:11.383Z,89.2
2017-07-01T00:01:18.864Z,88.8
2017-07-01T00:02:26.361Z,88.8
2017-07-01T00:03:33.840Z,89.6
2017-07-01T00:04:41.622Z,89.1
2017-07-01T00:05:49.105Z,88.6
2017-07-01T00:06:56.280Z,89.5
2017-07-01T00:08:03.762Z,88.9
2017-07-01T00:09:10.918Z,89.3
2017-07-01T00:10:18.702Z,88.6
2017-07-01T00:11:26.185Z,88.1
2017-07-01T00:12:33.688Z,87.9
2017-07-01T00:13:41.170Z,88.2
2017-07-01T00:14:48.643Z,88.4
2017-07-01T00:15:56.419Z,89.1
2017-07-01T00:17:03.905Z,88.7
2017-07-01T00:18:11.382Z,88.4
2017-07-01T00:19:18.528Z,88.9
2017-07-01T00:20:26.006Z,88.7
2017-07-01T00:21:33.822Z,88.4
2017-07-01T00:22:41.302Z,89.3
2017-07-01T00:23:48.808Z,88.1
2017-07-01T00:24:56.290Z,89.8
2017-07-01T00:26:03.773Z,88.8
2017-07-01T00:27:11.553Z,88.8
2017-07-01T00:28:19.034Z,88.9
2017-07-01T00:29:27.586Z,87.4
2017-07-01T00:30:35.067Z,88.7
2017-07-01T00:31:42.218Z,88.1
2017-07-01T00:32:50.005Z,89.7
2017-07-01T00:33:57.517Z,88.7
2017-07-01T00:35:04.662Z,89.1
2017-07-01T00:36:12.143Z,89.3
2017-07-01T00:37:19.627Z,89.7
2017-07-01T00:38:27.074Z,89
2017-07-01T00:39:34.550Z,89.6
2017-07-01T00:40:42.027Z,89
2017-07-01T00:41:49.519Z,89.3
2017-07-01T00:42:56.341Z,88.8
2017-07-01T00:44:04.125Z,88.4
2017-07-01T00:45:11.615Z,89.9
2017-07-01T00:46:19.120Z,90.4
2017-07-01T00:47:26.260Z,90.2
2017-07-01T00:48:33.755Z,90.1
2017-07-01T00:49:41.544Z,90
2017-07-01T00:50:49.019Z,90.1
2017-07-01T00:51:56.507Z,89.3
2017-07-01T00:53:03.651Z,88.8
2017-07-01T00:54:11.131Z,87.2
2017-07-01T00:55:18.920Z,89
2017-07-01T00:56:26.402Z,88.2
2017-07-01T00:57:33.883Z,87.5
2017-07-01T00:58:41.360Z,88.5
2017-07-01T00:59:48.841Z,87.6
2017-07-01T01:00:56.620Z,87.3
2017-07-01T01:02:04.099Z,88.2
2017-07-01T01:03:11.243Z,88.7
2017-07-01T01:04:18.393Z,88.3
2017-07-01T01:05:25.880Z,88.6
2017-07-01T01:06:33.661Z,89.5
2017-07-01T01:07:40.841Z,89.7
2017-07-01T01:08:48.323Z,89.7
2017-07-01T01:09:55.161Z,90.1
2017-07-01T01:11:02.640Z,89.4
2017-07-01T01:12:10.423Z,89.5
2017-07-01T01:13:17.914Z,89.7
2017-07-01T01:14:25.397Z,89.5
2017-07-01T01:15:32.546Z,89.8
2017-07-01T01:16:40.029Z,89.7
2017-07-01T01:17:47.810Z,90
2017-07-01T01:18:55.286Z,90
2017-07-01T01:20:02.773Z,90.4
2017-07-01T01:21:10.255Z,90.2
2017-07-01T01:22:17.404Z,89.6
2017-07-01T01:23:25.191Z,90.2
2017-07-01T01:24:32.662Z,90.2
2017-07-01T01:25:40.144Z,90
2017-07-01T01:26:47.315Z,89.5
2017-07-01T01:27:54.791Z,90.2
2017-07-01T01:29:02.247Z,90
2017-07-01T01:30:09.728Z,90
2017-07-01T01:31:17.208Z,90
2017-07-01T01:32:24.357Z,89.8
2017-07-01T01:33:31.839Z,90.1
2017-07-01T01:34:39.621Z,89.9
2017-07-01T01:35:47.104Z,90.4
2017-07-01T01:36:54.597Z,90.3
2017-07-01T01:38:02.073Z,90
2017-07-01T01:39:09.549Z,90.2
2017-07-01T01:40:17.330Z,90.4
2017-07-01T01:41:24.841Z,90.1
2017-07-01T01:42:31.655Z,90.2
2017-07-01T01:43:38.808Z,90.1
2017-07-01T01:44:46.279Z,90.1
2017-07-01T01:45:54.057Z,90.1
2017-07-01T01:47:01.284Z,89.9
2017-07-01T01:48:08.761Z,90
2017-07-01T01:49:15.913Z,89.2
2017-07-01T01:50:23.062Z,89.8
2017-07-01T01:51:30.849Z,89.6
2017-07-01T01:52:38.326Z,89.5
2017-07-01T01:53:45.810Z,89.3
2017-07-01T01:54:53.286Z,89.8
2017-07-01T01:56:00.767Z,89.8
2017-07-01T01:57:08.232Z,89.2
2017-07-01T01:58:15.380Z,90
2017-07-01T01:59:22.877Z,90.1
2017-07-01T02:00:30.354Z,90.1
2017-07-01T02:01:37.501Z,90
2017-07-01T02:02:44.963Z,90.3
2017-07-01T02:03:52.445Z,90
2017-07-01T02:05:00.056Z,90
2017-07-01T02:06:07.541Z,89.9
2017-07-01T02:07:14.710Z,90.1
2017-07-01T02:08:22.165Z,90.3
2017-07-01T02:09:30.448Z,89.9
2017-07-01T02:10:37.265Z,90.3
2017-07-01T02:11:44.422Z,90.1
2017-07-01T02:12:51.898Z,90.1
2017-07-01T02:13:59.677Z,90.1
2017-07-01T02:15:07.151Z,90.1
2017-07-01T02:16:14.633Z,89.9
2017-07-01T02:17:22.116Z,90.2
2017-07-01T02:18:29.265Z,90.5
2017-07-01T02:19:36.718Z,90.5
2017-07-01T02:20:44.197Z,90
2017-07-01T02:21:51.685Z,90.5
2017-07-01T02:22:59.162Z,90.5
2017-07-01T02:24:07.074Z,90.5
2017-07-01T02:25:14.520Z,90.5
2017-07-01T02:26:21.995Z,90.3
2017-07-01T02:27:29.153Z,90.2
2017-07-01T02:28:36.632Z,90.5
2017-07-01T02:29:44.110Z,90
2017-07-01T02:30:51.896Z,90.4
2017-07-01T02:31:59.373Z,89.8
2017-07-01T02:33:06.528Z,90.1
2017-07-01T02:34:13.671Z,90.5
2017-07-01T02:35:21.148Z,90.2
2017-07-01T02:36:28.940Z,90.5
2017-07-01T02:37:36.089Z,90.5
2017-07-01T02:38:43.248Z,90.4
2017-07-01T02:39:50.394Z,90.5
2017-07-01T02:40:57.880Z,90.5
2017-07-01T02:42:05.341Z,90.5
2017-07-01T02:43:12.816Z,90.5
2017-07-01T02:44:19.971Z,90.5
2017-07-01T02:45:27.136Z,90.5
2017-07-01T02:46:33.945Z,90.4
2017-07-01T02:47:41.720Z,90.5
2017-07-01T02:48:48.865Z,90.5
2017-07-01T02:49:56.024Z,90.5
2017-07-01T02:51:03.503Z,90.5
2017-07-01T02:52:10.978Z,90.5
2017-07-01T02:53:18.760Z,90.4
2017-07-01T02:54:26.237Z,90.5
2017-07-01T02:55:33.053Z,90.7
2017-07-01T02:56:40.532Z,90.9
2017-07-01T02:57:48.008Z,90.6
2017-07-01T02:58:55.791Z,90.6
2017-07-01T03:00:03.273Z,90.6
2017-07-01T03:01:10.752Z,90.9
2017-07-01T03:02:17.578Z,90.5
2017-07-01T03:03:24.761Z,90.8
2017-07-01T03:04:32.570Z,90.5
2017-07-01T03:05:40.047Z,90.9
2017-07-01T03:06:47.530Z,90.7
2017-07-01T03:07:55.009Z,91
2017-07-01T03:09:02.522Z,91
2017-07-01T03:10:10.323Z,90.9
2017-07-01T03:11:17.800Z,91
2017-07-01T03:12:25.280Z,90.7
2017-07-01T03:13:32.431Z,90.7
2017-07-01T03:14:39.911Z,91.2
2017-07-01T03:15:47.696Z,91.1
2017-07-01T03:16:54.854Z,90.9
2017-07-01T03:18:02.335Z,91.2
2017-07-01T03:19:09.822Z,91.4
2017-07-01T03:20:17.301Z,91.1
2017-07-01T03:21:24.777Z,91.2
2017-07-01T03:22:32.258Z,91.2
2017-07-01T03:23:39.739Z,90.8
2017-07-01T03:24:46.885Z,90.9
2017-07-01T03:25:54.366Z,90.5
2017-07-01T03:27:02.147Z,91.1
2017-07-01T03:28:09.291Z,90.5
2017-07-01T03:29:16.768Z,90.8
2017-07-01T03:30:24.251Z,90.5
2017-07-01T03:31:31.736Z,90.7
2017-07-01T03:32:39.520Z,90.6
2017-07-01T03:33:46.670Z,90.3
2017-07-01T03:34:53.812Z,90.5
2017-07-01T03:36:00.968Z,90.6
2017-07-01T03:37:08.119Z,90.7
2017-07-01T03:38:15.278Z,91
2017-07-01T03:39:22.429Z,90.7
2017-07-01T03:40:29.907Z,90.7
2017-07-01T03:41:37.393Z,90.5
2017-07-01T03:42:44.871Z,90.6
2017-07-01T03:43:52.012Z,90.6
2017-07-01T03:44:59.498Z,90.8
2017-07-01T03:46:06.970Z,90.5
2017-07-01T03:47:14.451Z,90.9
2017-07-01T03:48:21.938Z,90.4
2017-07-01T03:49:29.416Z,90.9
2017-07-01T03:50:36.584Z,90.7
2017-07-01T03:51:44.062Z,90.5
2017-07-01T03:52:51.223Z,91.2
2017-07-01T03:53:58.666Z,91.3
2017-07-01T03:55:06.151Z,91.2
2017-07-01T03:56:13.632Z,91.2
2017-07-01T03:57:21.133Z,91.1
2017-07-01T03:58:28.290Z,91.3
2017-07-01T03:59:36.082Z,91.1
2017-07-01T04:00:43.572Z,90.9
2017-07-01T04:01:51.053Z,91
2017-07-01T04:02:58.554Z,91.1
2017-07-01T04:04:06.038Z,91.2
2017-07-01T04:05:13.817Z,91.2
2017-07-01T04:06:21.306Z,91.1
2017-07-01T04:07:28.788Z,91.3
2017-07-01T04:08:35.932Z,91.4
2017-07-01T04:09:43.417Z,91.4
2017-07-01T04:10:51.206Z,91.6
2017-07-01T04:11:58.352Z,91.6
2017-07-01T04:13:05.867Z,91.4
2017-07-01T04:14:13.347Z,91.5
2017-07-01T04:15:20.827Z,91.4
2017-07-01T04:16:28.307Z,91.3
2017-07-01T04:17:36.021Z,91.4
2017-07-01T04:18:43.518Z,91.6
2017-07-01T04:19:50.998Z,91.1
2017-07-01T04:20:58.785Z,91.7
2017-07-01T04:22:06.267Z,91.4
2017-07-01T04:23:13.752Z,91.2
2017-07-01T04:24:20.914Z,90.7
2017-07-01T04:25:28.400Z,90.7
2017-07-01T04:26:36.176Z,90.6
2017-07-01T04:27:43.647Z,90.7
2017-07-01T04:28:51.131Z,90.4
2017-07-01T04:29:58.290Z,90.5
2017-07-01T04:31:05.433Z,90.6
2017-07-01T04:32:12.561Z,90.3
2017-07-01T04:33:20.044Z,90.3
2017-07-01T04:34:27.533Z,90.7
2017-07-01T04:35:35.020Z,90.7
2017-07-01T04:36:42.498Z,90.8
2017-07-01T04:37:50.273Z,90.1
2017-07-01T04:38:57.749Z,90
2017-07-01T04:40:05.250Z,90.4
2017-07-01T04:41:12.735Z,90.5
2017-07-01T04:42:20.206Z,90.5
2017-07-01T04:43:28.281Z,90
2017-07-01T04:44:35.756Z,90.4
2017-07-01T04:45:43.239Z,90.7
2017-07-01T04:46:50.396Z,90.7
2017-07-01T04:47:57.877Z,90.7
2017-07-01T04:49:05.755Z,90.2
2017-07-01T04:50:13.237Z,90.4
2017-07-01T04:51:20.716Z,90.1
2017-07-01T04:52:28.198Z,90.7
2017-07-01T04:53:35.683Z,90.3
2017-07-01T04:54:43.500Z,90.1
2017-07-01T04:55:50.988Z,90.5
2017-07-01T04:56:58.162Z,90.2
2017-07-01T04:58:05.640Z,90.6
2017-07-01T04:59:13.110Z,90.6
2017-07-01T05:00:20.961Z,90.3
2017-07-01T05:01:28.111Z,90.6
2017-07-01T05:02:35.587Z,90.8
2017-07-01T05:03:43.070Z,90.4
2017-07-01T05:04:50.544Z,90.7
2017-07-01T05:05:58.279Z,90.2
2017-07-01T05:07:05.423Z,90.4
2017-07-01T05:08:12.903Z,90.3
2017-07-01T05:09:20.384Z,90
2017-07-01T05:10:27.863Z,90.4
2017-07-01T05:11:35.562Z,90.3
2017-07-01T05:12:43.076Z,90.6
2017-07-01T05:13:50.573Z,90.4
2017-07-01T05:14:57.732Z,90.4
2017-07-01T05:16:04.897Z,90.6
2017-07-01T05:17:12.386Z,90.1
2017-07-01T05:18:19.859Z,90
2017-07-01T05:19:27.339Z,90.2
2017-07-01T05:20:34.824Z,90
2017-07-01T05:21:42.606Z,90.6
2017-07-01T05:22:50.093Z,90.2
2017-07-01T05:23:57.571Z,90.3
2017-07-01T05:25:05.055Z,90.5
2017-07-01T05:26:12.533Z,90
2017-07-01T05:27:20.325Z,90.7
2017-07-01T05:28:28.046Z,90
2017-07-01T05:29:35.760Z,89.7
2017-07-01T05:30:43.275Z,90.1
2017-07-01T05:31:50.748Z,90.5
2017-07-01T05:32:58.526Z,90.3
2017-07-01T05:34:06.026Z,90.1
2017-07-01T05:35:13.508Z,90.1
2017-07-01T05:36:21.006Z,90.3
2017-07-01T05:37:28.508Z,90
2017-07-01T05:38:36.308Z,89.9
2017-07-01T05:39:43.791Z,90
2017-07-01T05:40:50.951Z,90.2
2017-07-01T05:41:58.434Z,90
2017-07-01T05:43:05.592Z,90.2
2017-07-01T05:44:13.364Z,89.6
2017-07-01T05:45:20.861Z,90.3
2017-07-01T05:46:28.341Z,89.9
2017-07-01T05:47:35.816Z,89.9
2017-07-01T05:48:43.297Z,89.9
2017-07-01T05:49:50.787Z,90
2017-07-01T05:50:58.273Z,89.4
2017-07-01T05:52:05.743Z,89.6
2017-07-01T05:53:13.227Z,89.1
2017-07-01T05:54:20.708Z,90
2017-07-01T05:55:28.496Z,90.1
2017-07-01T05:56:35.981Z,89.4
2017-07-01T05:57:43.457Z,88.9
2017-07-01T05:58:51.148Z,89.4
2017-07-01T05:59:58.645Z,89.8
2017-07-01T06:01:06.430Z,89.4
2017-07-01T06:02:13.930Z,87.8
2017-07-01T06:03:21.409Z,89.4
2017-07-01T06:04:28.575Z,88.7
2017-07-01T06:05:36.053Z,88.6
2017-07-01T06:06:43.837Z,88.6
2017-07-01T06:07:51.316Z,88.4
2017-07-01T06:08:58.802Z,89
2017-07-01T06:10:06.287Z,88.6
2017-07-01T06:11:13.778Z,88.7
2017-07-01T06:12:21.225Z,89.3
2017-07-01T06:13:28.713Z,89.4
2017-07-01T06:14:36.218Z,89.4
2017-07-01T06:17:05.781Z,88.1
2017-07-01T06:18:13.562Z,88.6
2017-07-01T06:19:20.721Z,88.2
2017-07-01T06:20:28.202Z,88.8
2017-07-01T06:21:35.683Z,88.4
2017-07-01T06:22:42.840Z,87.5
2017-07-01T06:23:50.325Z,88.1
2017-07-01T06:24:57.497Z,88.4
2017-07-01T06:26:04.981Z,89.2
2017-07-01T06:27:12.468Z,88.9
2017-07-01T06:28:20.033Z,89.2
2017-07-01T06:29:27.523Z,88.1
2017-07-01T06:30:35.191Z,87.8
2017-07-01T06:31:42.674Z,87.5
2017-07-01T06:32:50.158Z,87.6
2017-07-01T06:33:57.639Z,87.6
2017-07-01T06:35:05.437Z,88.2
2017-07-01T06:36:12.922Z,87.8
2017-07-01T06:37:20.405Z,87.7
2017-07-01T06:38:27.885Z,87.2
2017-07-01T06:39:35.372Z,87.5
2017-07-01T06:40:42.816Z,88.4
2017-07-01T06:41:50.305Z,88.1
2017-07-01T06:42:57.787Z,87
2017-07-01T06:44:05.267Z,88.1
2017-07-01T06:45:12.747Z,87.3
2017-07-01T06:46:20.232Z,86.7
2017-07-01T06:47:27.871Z,87.4
2017-07-01T06:48:35.386Z,87.7
2017-07-01T06:49:42.868Z,86.7
2017-07-01T06:50:50.658Z,87.3
2017-07-01T06:51:58.180Z,88.1
2017-07-01T06:53:05.324Z,87.4
2017-07-01T06:54:12.799Z,87.6
2017-07-01T06:55:20.277Z,86.6
2017-07-01T06:56:28.060Z,87.9
2017-07-01T06:57:35.539Z,86.9
2017-07-01T06:58:43.024Z,87.7
2017-07-01T06:59:50.176Z,87.2
2017-07-01T07:00:57.670Z,87.5
2017-07-01T07:02:05.447Z,87.3
2017-07-01T07:03:12.924Z,87.1
2017-07-01T07:04:34.570Z,87.2
2017-07-01T07:05:42.066Z,86.8
2017-07-01T07:06:49.550Z,86.9
2017-07-01T07:07:57.042Z,87.1
2017-07-01T07:09:04.514Z,88
2017-07-01T07:10:12.001Z,87.4
2017-07-01T07:11:19.491Z,86.3
2017-07-01T07:12:26.974Z,87
2017-07-01T07:13:34.782Z,87.7
2017-07-01T07:14:42.262Z,86.2
2017-07-01T07:15:49.404Z,86.1
2017-07-01T07:16:56.549Z,86.3
2017-07-01T07:18:03.660Z,86.7
2017-07-01T07:19:11.111Z,86.7
2017-07-01T07:20:18.837Z,87.3
2017-07-01T07:21:26.313Z,87.2
2017-07-01T07:22:33.796Z,86.8
2017-07-01T07:23:41.281Z,85.5
2017-07-01T07:24:49.079Z,85.9
2017-07-01T07:25:56.592Z,86.4
2017-07-01T07:27:03.769Z,86.4
2017-07-01T07:28:11.247Z,86.1
2017-07-01T07:29:18.412Z,86.8
2017-07-01T07:30:25.572Z,85.7
2017-07-01T07:31:32.379Z,86.4
2017-07-01T07:32:39.533Z,85.9
2017-07-01T07:33:47.019Z,85
2017-07-01T07:34:54.498Z,84.6
2017-07-01T07:36:02.293Z,84.9
2017-07-01T07:37:09.114Z,85.7
2017-07-01T07:38:16.604Z,85.1
2017-07-01T07:39:24.082Z,84.4
2017-07-01T07:40:31.726Z,84.6
2017-07-01T07:41:39.510Z,84.5
2017-07-01T07:42:46.984Z,83.7
2017-07-01T07:43:54.463Z,82.6
2017-07-01T07:45:01.944Z,83.4
2017-07-01T07:46:09.423Z,83.5
2017-07-01T07:47:17.203Z,83.9
2017-07-01T07:48:24.689Z,83.3
2017-07-01T07:49:32.170Z,83.6
2017-07-01T07:50:39.669Z,82.8
2017-07-01T07:51:47.157Z,83.6
2017-07-01T07:52:54.608Z,83.9
2017-07-01T07:54:02.094Z,84.5
2017-07-01T07:55:09.587Z,84.5
2017-07-01T07:56:16.409Z,83.7
2017-07-01T07:57:23.892Z,83.2
2017-07-01T07:58:31.438Z,82.8
2017-07-01T07:59:38.924Z,82.9
2017-07-01T08:00:46.075Z,83.4
2017-07-01T08:01:53.556Z,82.9
2017-07-01T08:03:00.716Z,82.9
2017-07-01T08:04:07.888Z,83.6
2017-07-01T08:05:15.381Z,83.2
2017-07-01T08:06:22.868Z,83.6
2017-07-01T08:07:30.022Z,84.4
2017-07-01T08:08:37.501Z,83.2
2017-07-01T08:09:44.657Z,83.5
2017-07-01T08:10:52.140Z,83.1
2017-07-01T08:11:59.619Z,84.3
2017-07-01T08:13:07.099Z,83.4
2017-07-01T08:14:14.581Z,83.8
2017-07-01T08:15:22.368Z,83.3
2017-07-01T08:16:29.852Z,83.5
2017-07-01T08:17:37.339Z,83.5
2017-07-01T08:18:44.170Z,83.7
2017-07-01T08:19:51.662Z,83.4
2017-07-01T08:20:59.445Z,83.8
2017-07-01T08:22:06.925Z,84.4
2017-07-01T08:23:14.458Z,84.6
2017-07-01T08:24:21.959Z,82
2017-07-01T08:25:29.443Z,82.2
2017-07-01T08:26:37.236Z,82.4
2017-07-01T08:27:44.714Z,82.9
2017-07-01T08:28:52.201Z,82.6
2017-07-01T08:29:59.685Z,83.7
2017-07-01T08:31:07.177Z,83.3
2017-07-01T08:32:14.658Z,82.8
2017-07-01T08:33:22.364Z,82.9
2017-07-01T08:34:29.847Z,83.3
2017-07-01T08:35:37.325Z,82.4
2017-07-01T08:36:45.160Z,82
2017-07-01T08:37:52.313Z,82.4
2017-07-01T08:38:59.459Z,83
2017-07-01T08:40:06.935Z,82.3
2017-07-01T08:41:14.421Z,81.8
2017-07-01T08:42:22.200Z,82.5
2017-07-01T08:43:29.687Z,81.6
2017-07-01T08:44:37.173Z,81.1
2017-07-01T08:45:44.313Z,81.5
2017-07-01T08:46:51.786Z,81.5
2017-07-01T08:47:59.255Z,81.9
2017-07-01T08:49:06.733Z,81.4
2017-07-01T08:50:14.220Z,81.5
2017-07-01T08:51:21.707Z,81.9
2017-07-01T08:52:29.183Z,82.3
2017-07-01T08:53:37.037Z,83
2017-07-01T08:54:44.517Z,84.3
2017-07-01T08:55:51.995Z,83.5
2017-07-01T08:56:59.478Z,83.4
2017-07-01T08:58:06.970Z,83.9
2017-07-01T08:59:14.472Z,82.2
2017-07-01T09:00:21.952Z,83.1
2017-07-01T09:01:29.433Z,82.6
2017-07-01T09:02:36.912Z,82.1
2017-07-01T09:03:45.278Z,81.3
2017-07-01T09:04:53.113Z,81.6
2017-07-01T09:06:00.590Z,81.1
2017-07-01T09:07:08.086Z,81.1
2017-07-01T09:08:15.581Z,82
2017-07-01T09:09:22.739Z,81.4
2017-07-01T09:10:30.224Z,80.5
2017-07-01T09:11:37.700Z,80.8
2017-07-01T09:12:45.180Z,80.6
2017-07-01T09:13:52.956Z,80.4
2017-07-01T09:15:00.442Z,80.9
2017-07-01T09:16:07.928Z,81
2017-07-01T09:17:15.425Z,81.8
2017-07-01T09:18:22.921Z,81.6
2017-07-01T09:19:31.135Z,81.8
2017-07-01T09:20:38.601Z,81.5
2017-07-01T09:21:46.098Z,82.3
2017-07-01T09:22:53.577Z,83.9
2017-07-01T09:24:00.775Z,84.3
2017-07-01T09:25:08.553Z,83.1
2017-07-01T09:26:16.044Z,83.6
2017-07-01T09:27:23.529Z,84.6
2017-07-01T09:28:31.017Z,84.4
2017-07-01T09:29:38.496Z,84.3
2017-07-01T09:30:46.282Z,83.7
2017-07-01T09:31:53.777Z,83.5
2017-07-01T09:33:01.317Z,83.7
2017-07-01T09:34:08.797Z,84.4
2017-07-01T09:35:16.289Z,84.3
2017-07-01T09:36:23.772Z,84.5
2017-07-01T09:37:30.991Z,85.8
2017-07-01T09:38:38.145Z,86.9
2017-07-01T09:39:45.630Z,86.6
2017-07-01T09:40:53.425Z,87.2
2017-07-01T09:42:00.905Z,87.6
2017-07-01T09:43:08.389Z,86.1
2017-07-01T09:44:15.867Z,87
2017-07-01T09:45:23.024Z,85.5
2017-07-01T09:46:30.830Z,87.3
2017-07-01T09:47:38.309Z,85.9
2017-07-01T09:48:45.462Z,85.5
2017-07-01T09:49:52.291Z,86.3
2017-07-01T09:50:59.766Z,86.6
2017-07-01T09:52:07.553Z,88.8
2017-07-01T09:53:15.036Z,89.5
2017-07-01T09:54:22.518Z,90.5
2017-07-01T09:55:30.004Z,88.9
2017-07-01T09:56:37.494Z,89.2
2017-07-01T09:57:45.306Z,90.2
2017-07-01T09:58:52.786Z,89.5
2017-07-01T10:00:00.287Z,90
2017-07-01T10:01:07.763Z,89.3
2017-07-01T10:02:15.254Z,89.6
2017-07-01T10:03:22.741Z,89.8
2017-07-01T10:04:30.219Z,90.6
2017-07-01T10:05:37.369Z,89.8
2017-07-01T10:06:44.853Z,89.7
2017-07-01T10:07:52.333Z,90
2017-07-01T10:08:59.791Z,90
2017-07-01T10:10:06.940Z,89.6
2017-07-01T10:11:14.418Z,89.8
2017-07-01T10:12:21.562Z,88.8
2017-07-01T10:13:29.347Z,90.4
2017-07-01T10:14:37.081Z,86.6
2017-07-01T10:15:44.552Z,86.5
2017-07-01T10:16:52.066Z,86.6
2017-07-01T10:17:59.547Z,85.9
2017-07-01T10:19:07.325Z,86.4
2017-07-01T10:20:14.487Z,87.4
2017-07-01T10:21:21.982Z,88.1
2017-07-01T10:22:29.468Z,86.3
2017-07-01T10:23:36.615Z,87.1
2017-07-01T10:24:44.395Z,86.9
2017-07-01T10:25:51.882Z,85.7
2017-07-01T10:26:59.366Z,85.7
2017-07-01T10:28:06.843Z,84.3
2017-07-01T10:29:14.322Z,84.3
2017-07-01T10:30:21.803Z,84.2
2017-07-01T10:31:29.289Z,83.9
2017-07-01T10:32:36.779Z,83.9
2017-07-01T10:33:44.267Z,84.4
2017-07-01T10:34:51.903Z,82.5
2017-07-01T10:35:59.687Z,82.1
2017-07-01T10:37:07.167Z,82.6
2017-07-01T10:38:14.656Z,83.1
2017-07-01T10:39:22.139Z,81.2
2017-07-01T10:40:29.624Z,81.8
2017-07-01T10:41:37.404Z,80
2017-07-01T10:42:44.890Z,80.8
2017-07-01T10:43:52.032Z,80.3
2017-07-01T10:44:59.514Z,79.6
2017-07-01T10:46:06.677Z,80.3
2017-07-01T10:47:14.465Z,80.6
2017-07-01T10:48:21.943Z,79.8
2017-07-01T10:49:29.425Z,80.9
2017-07-01T10:50:36.580Z,78.7
2017-07-01T10:51:44.053Z,79.4
2017-07-01T10:52:51.832Z,78.8
2017-07-01T10:53:59.312Z,78.9
2017-07-01T10:55:06.812Z,80.1
2017-07-01T10:56:14.289Z,79.9
2017-07-01T10:57:21.775Z,80.8
2017-07-01T10:58:29.570Z,79.8
2017-07-01T10:59:37.055Z,79.8
2017-07-01T11:00:44.207Z,80.1
2017-07-01T11:01:51.693Z,79.7
2017-07-01T11:02:59.174Z,79.5
2017-07-01T11:04:06.968Z,82.4
2017-07-01T11:05:14.460Z,79.9
2017-07-01T11:06:21.618Z,80.1
2017-07-01T11:07:29.106Z,77.2
2017-07-01T11:08:36.591Z,77.3
2017-07-01T11:09:44.071Z,78.7
2017-07-01T11:10:51.223Z,77.8
2017-07-01T11:11:58.933Z,78.4
2017-07-01T11:13:06.083Z,78.6
2017-07-01T11:14:13.812Z,78.1
2017-07-01T11:15:21.598Z,78.7
2017-07-01T11:16:28.773Z,78.9
2017-07-01T11:17:36.260Z,78.1
2017-07-01T11:18:43.780Z,78
2017-07-01T11:19:51.259Z,78.5
2017-07-01T11:20:59.038Z,77.4
2017-07-01T11:22:06.746Z,78.4
2017-07-01T11:23:14.229Z,78.1
2017-07-01T11:24:21.721Z,77.7
2017-07-01T11:25:28.550Z,77.8
2017-07-01T11:26:36.350Z,77.8
2017-07-01T11:27:43.833Z,77.4
2017-07-01T11:28:51.310Z,77.4
2017-07-01T11:29:58.794Z,77.4
2017-07-01T11:31:06.293Z,77.2
2017-07-01T11:32:13.750Z,77.3
2017-07-01T11:33:21.242Z,77.8
2017-07-01T11:34:28.736Z,77
2017-07-01T11:35:36.223Z,77.9
2017-07-01T11:36:43.706Z,78.3
2017-07-01T11:37:51.506Z,76.9
2017-07-01T11:38:58.989Z,77.1
2017-07-01T11:40:06.480Z,75.8
2017-07-01T11:41:13.962Z,76.6
2017-07-01T11:42:21.110Z,76.4
2017-07-01T11:43:28.895Z,76.5
2017-07-01T11:44:36.384Z,76.5
2017-07-01T11:45:43.543Z,76.3
2017-07-01T11:46:51.029Z,76
2017-07-01T11:47:58.520Z,76.5
2017-07-01T11:49:06.006Z,74.9
2017-07-01T11:50:13.517Z,75.4
2017-07-01T11:51:21.011Z,76.4
2017-07-01T11:52:28.507Z,75.5
2017-07-01T11:53:35.990Z,75.3
2017-07-01T11:54:43.772Z,75.6
2017-07-01T11:55:51.260Z,75.9
2017-07-01T11:56:58.451Z,76.2
2017-07-01T11:58:05.932Z,74.7
2017-07-01T11:59:13.411Z,75.6
2017-07-01T12:00:20.876Z,74.8
2017-07-01T12:01:29.173Z,75.6
2017-07-01T12:02:36.660Z,75.3
2017-07-01T12:03:44.141Z,75
2017-07-01T12:04:50.956Z,76.4
2017-07-01T12:05:58.417Z,75.8
2017-07-01T12:07:05.565Z,75.7
2017-07-01T12:08:12.726Z,75.2
2017-07-01T12:09:20.210Z,75
2017-07-01T12:10:27.700Z,75.5
2017-07-01T12:11:35.248Z,76.1
2017-07-01T12:12:42.733Z,76.1
2017-07-01T12:13:50.214Z,76.2
2017-07-01T12:14:57.700Z,75.9
2017-07-01T12:16:05.187Z,76.2
2017-07-01T12:17:12.971Z,76.4
2017-07-01T12:18:20.451Z,76.7
2017-07-01T12:19:27.930Z,75.6
2017-07-01T12:20:35.414Z,75.9
2017-07-01T12:21:42.240Z,76
2017-07-01T12:22:50.087Z,76.3
2017-07-01T12:23:57.577Z,75.1
2017-07-01T12:25:05.071Z,75.3
2017-07-01T12:26:12.559Z,75.9
2017-07-01T12:27:20.044Z,76.4
2017-07-01T12:28:27.945Z,76.8
2017-07-01T12:29:35.548Z,77.4
2017-07-01T12:30:43.043Z,76.8
2017-07-01T12:31:50.529Z,77.9
2017-07-01T12:32:58.014Z,79.2
2017-07-01T12:34:05.494Z,78.8
2017-07-01T12:35:12.974Z,78.3
2017-07-01T12:36:20.468Z,78.9
2017-07-01T12:37:27.628Z,78.8
2017-07-01T12:38:35.416Z,79.8
2017-07-01T12:39:42.903Z,79.6
2017-07-01T12:40:50.387Z,78.7
2017-07-01T12:41:57.864Z,79.7
2017-07-01T12:43:05.013Z,80
2017-07-01T12:44:12.477Z,77.3
2017-07-01T12:45:19.310Z,77
2017-07-01T12:46:26.789Z,77
2017-07-01T12:47:33.949Z,76.6
2017-07-01T12:48:41.436Z,77.5
2017-07-01T12:49:48.907Z,75.9
2017-07-01T12:50:56.397Z,77.1
2017-07-01T12:52:04.137Z,76
2017-07-01T12:53:11.621Z,75.6
2017-07-01T12:54:19.106Z,76.1
2017-07-01T12:55:26.271Z,76.3
2017-07-01T12:56:33.762Z,77.1
2017-07-01T12:57:41.257Z,76.7
2017-07-01T12:58:48.090Z,77.2
2017-07-01T12:59:55.576Z,76.4
2017-07-01T13:01:03.361Z,75.1
2017-07-01T13:02:10.857Z,76.1
2017-07-01T13:03:18.345Z,75.7
2017-07-01T13:04:25.830Z,75.4
2017-07-01T13:05:32.985Z,74.6
2017-07-01T13:06:40.482Z,76
2017-07-01T13:07:48.128Z,74.7
2017-07-01T13:08:55.279Z,75.4
2017-07-01T13:10:02.771Z,76.1
2017-07-01T13:11:09.934Z,75.6
2017-07-01T13:12:17.718Z,75.9
2017-07-01T13:13:25.203Z,75.8
2017-07-01T13:14:32.689Z,74.9
2017-07-01T13:15:40.169Z,74.3
2017-07-01T13:16:47.324Z,73.8
2017-07-01T13:17:54.815Z,74.1
2017-07-01T13:19:02.293Z,74.2
2017-07-01T13:20:09.774Z,74.1
2017-07-01T13:21:17.261Z,74.5
2017-07-01T13:22:24.747Z,73.7
2017-07-01T13:23:32.592Z,74.4
2017-07-01T13:24:40.234Z,74.4
2017-07-01T13:25:47.754Z,74.5
2017-07-01T13:26:55.245Z,74.4
2017-07-01T13:28:02.727Z,74.3
2017-07-01T13:29:10.563Z,73.7
2017-07-01T13:30:18.065Z,74.2
2017-07-01T13:31:25.548Z,73.7
2017-07-01T13:32:33.036Z,73.5
2017-07-01T13:33:40.526Z,74.8
2017-07-01T13:34:48.363Z,74.2
2017-07-01T13:35:55.854Z,75.2
2017-07-01T13:37:03.338Z,74
2017-07-01T13:38:11.059Z,75.1
2017-07-01T13:39:18.769Z,75.2
2017-07-01T13:40:26.487Z,74.1
2017-07-01T13:41:33.645Z,74.4
2017-07-01T13:42:41.163Z,75
2017-07-01T13:43:48.319Z,74.5
2017-07-01T13:44:55.811Z,73.7
2017-07-01T13:46:03.848Z,73.5
2017-07-01T13:47:11.383Z,73.7
2017-07-01T13:48:18.539Z,74.3
2017-07-01T13:49:26.017Z,74.7
2017-07-01T13:50:33.175Z,74.7
2017-07-01T13:51:40.987Z,75
2017-07-01T13:52:48.467Z,74.9
2017-07-01T13:53:55.961Z,75.8
2017-07-01T13:55:03.121Z,75.8
2017-07-01T13:56:10.608Z,75
2017-07-01T13:57:18.395Z,75.7
2017-07-01T13:58:25.897Z,75.5
2017-07-01T13:59:33.414Z,75.5
2017-07-01T14:00:40.901Z,75.5
2017-07-01T14:01:48.377Z,75.8
2017-07-01T14:02:56.175Z,75.2
2017-07-01T14:04:03.671Z,74.9
2017-07-01T14:05:10.828Z,75.8
2017-07-01T14:06:18.311Z,74.9
2017-07-01T14:07:25.798Z,75
2017-07-01T14:08:33.581Z,75
2017-07-01T14:09:41.075Z,74.5
2017-07-01T14:10:48.563Z,75.3
2017-07-01T14:11:56.053Z,75.1
2017-07-01T14:13:03.541Z,74.5
2017-07-01T14:14:11.332Z,74.4
2017-07-01T14:15:18.844Z,74.3
2017-07-01T14:16:26.328Z,74.9
2017-07-01T14:17:34.843Z,75.9
2017-07-01T14:18:42.347Z,75.2
2017-07-01T14:19:50.131Z,74.8
2017-07-01T14:20:57.640Z,75.2
2017-07-01T14:22:05.119Z,76.4
2017-07-01T14:23:12.637Z,76.1
2017-07-01T14:24:19.795Z,76.5
2017-07-01T14:25:27.589Z,77.8
2017-07-01T14:26:35.078Z,77.3
2017-07-01T14:27:42.556Z,77.9
2017-07-01T14:28:50.052Z,77.8
2017-07-01T14:29:57.535Z,77.6
2017-07-01T14:31:05.369Z,77.3
2017-07-01T14:32:13.099Z,77
2017-07-01T14:33:20.607Z,77.8
2017-07-01T14:34:28.119Z,77.2
2017-07-01T14:35:35.294Z,77.2
2017-07-01T14:36:42.784Z,77.7
2017-07-01T14:37:50.503Z,77.3
2017-07-01T14:38:57.982Z,78.2
2017-07-01T14:40:05.157Z,78
2017-07-01T14:41:11.992Z,76.9
2017-07-01T14:42:19.832Z,77.3
2017-07-01T14:43:27.321Z,78.2
2017-07-01T14:44:34.825Z,77.5
2017-07-01T14:45:42.308Z,78.2
2017-07-01T14:46:49.810Z,78.7
2017-07-01T14:47:57.649Z,79.3
2017-07-01T14:49:04.823Z,77.9
2017-07-01T14:50:12.348Z,77.6
2017-07-01T14:51:19.502Z,78.2
2017-07-01T14:52:26.985Z,78.8
2017-07-01T14:53:34.818Z,77.6
2017-07-01T14:54:42.537Z,77.8
2017-07-01T14:55:50.009Z,77.5
2017-07-01T14:56:57.531Z,77.8
2017-07-01T14:58:05.063Z,77.9
2017-07-01T14:59:12.538Z,77.4
2017-07-01T15:00:19.685Z,77.8
2017-07-01T15:01:27.182Z,77.1
2017-07-01T15:02:34.670Z,77
2017-07-01T15:03:42.154Z,77.2
2017-07-01T15:04:49.940Z,77.4